sensor_id;sensor_type;location;lat;lon;timestamp;P1;durP1;ratioP1;P2;durP2;ratioP2
41233;SDS011;26968;42.686;23.352;2023-08-24T00:01:06;15.65;;;11.60;;
41233;SDS011;26968;42.686;23.352;2023-08-24T00:03:34;17.10;;;10.50;;
41233;SDS011;26968;42.686;23.352;2023-08-24T00:05:59;14.45;;;11.35;;
41233;SDS011;26968;42.686;23.352;2023-08-24T00:08:24;20.17;;;10.93;;
41233;SDS011;26968;42.686;23.352;2023-08-24T00:10:50;13.88;;;11.73;;
41233;SDS011;26968;42.686;23.352;2023-08-24T00:13:15;18.42;;;12.10;;
41233;SDS011;26968;42.686;23.352;2023-08-24T00:15:41;16.40;;;11.60;;
41233;SDS011;26968;42.686;23.352;2023-08-24T00:18:07;15.15;;;11.93;;
41233;SDS011;26968;42.686;23.352;2023-08-24T00:20:32;16.60;;;11.85;;
41233;SDS011;26968;42.686;23.352;2023-08-24T00:22:59;15.50;;;12.65;;
41233;SDS011;26968;42.686;23.352;2023-08-24T00:25:25;22.13;;;12.38;;
41233;SDS011;26968;42.686;23.352;2023-08-24T00:27:52;17.00;;;11.95;;
41233;SDS011;26968;42.686;23.352;2023-08-24T00:30:18;14.60;;;12.05;;
41233;SDS011;26968;42.686;23.352;2023-08-24T00:32:44;21.48;;;12.07;;
41233;SDS011;26968;42.686;23.352;2023-08-24T00:35:09;16.73;;;12.15;;
41233;SDS011;26968;42.686;23.352;2023-08-24T00:37:36;21.27;;;12.32;;
41233;SDS011;26968;42.686;23.352;2023-08-24T00:40:02;18.10;;;12.73;;
41233;SDS011;26968;42.686;23.352;2023-08-24T00:42:36;24.33;;;13.18;;
41233;SDS011;26968;42.686;23.352;2023-08-24T00:45:06;16.52;;;12.02;;
41233;SDS011;26968;42.686;23.352;2023-08-24T00:47:32;16.02;;;11.23;;
41233;SDS011;26968;42.686;23.352;2023-08-24T00:50:01;17.35;;;12.02;;
41233;SDS011;26968;42.686;23.352;2023-08-24T00:52:29;17.83;;;12.38;;
41233;SDS011;26968;42.686;23.352;2023-08-24T00:54:58;21.02;;;12.50;;
41233;SDS011;26968;42.686;23.352;2023-08-24T00:57:24;18.52;;;12.38;;
41233;SDS011;26968;42.686;23.352;2023-08-24T00:59:51;21.65;;;12.18;;
41233;SDS011;26968;42.686;23.352;2023-08-24T01:02:16;15.80;;;12.68;;
41233;SDS011;26968;42.686;23.352;2023-08-24T01:04:42;18.35;;;12.60;;
41233;SDS011;26968;42.686;23.352;2023-08-24T01:07:08;17.42;;;12.15;;
41233;SDS011;26968;42.686;23.352;2023-08-24T01:09:34;19.27;;;12.20;;
41233;SDS011;26968;42.686;23.352;2023-08-24T01:12:02;19.20;;;12.82;;
41233;SDS011;26968;42.686;23.352;2023-08-24T01:14:47;19.90;;;13.00;;
41233;SDS011;26968;42.686;23.352;2023-08-24T01:17:14;19.73;;;13.60;;
41233;SDS011;26968;42.686;23.352;2023-08-24T01:19:44;17.30;;;12.43;;
41233;SDS011;26968;42.686;23.352;2023-08-24T01:27:42;17.55;;;12.85;;
41233;SDS011;26968;42.686;23.352;2023-08-24T01:30:10;21.48;;;13.02;;
41233;SDS011;26968;42.686;23.352;2023-08-24T01:32:36;15.00;;;13.18;;
41233;SDS011;26968;42.686;23.352;2023-08-24T01:35:08;17.83;;;13.93;;
41233;SDS011;26968;42.686;23.352;2023-08-24T01:37:34;18.05;;;13.18;;
41233;SDS011;26968;42.686;23.352;2023-08-24T01:42:59;18.00;;;13.52;;
41233;SDS011;26968;42.686;23.352;2023-08-24T01:45:25;19.65;;;14.40;;
41233;SDS011;26968;42.686;23.352;2023-08-24T01:47:54;20.83;;;13.50;;
41233;SDS011;26968;42.686;23.352;2023-08-24T01:50:21;21.15;;;14.35;;
41233;SDS011;26968;42.686;23.352;2023-08-24T01:52:47;18.95;;;14.48;;
41233;SDS011;26968;42.686;23.352;2023-08-24T01:55:14;20.33;;;14.02;;
41233;SDS011;26968;42.686;23.352;2023-08-24T01:57:42;22.58;;;13.98;;
41233;SDS011;26968;42.686;23.352;2023-08-24T02:00:08;18.83;;;13.18;;
41233;SDS011;26968;42.686;23.352;2023-08-24T02:02:34;22.25;;;13.98;;
41233;SDS011;26968;42.686;23.352;2023-08-24T02:05:01;20.92;;;13.82;;
41233;SDS011;26968;42.686;23.352;2023-08-24T02:07:27;20.08;;;14.07;;
41233;SDS011;26968;42.686;23.352;2023-08-24T02:09:53;20.88;;;13.55;;
41233;SDS011;26968;42.686;23.352;2023-08-24T02:12:18;23.77;;;13.52;;
41233;SDS011;26968;42.686;23.352;2023-08-24T02:14:44;20.05;;;13.68;;
41233;SDS011;26968;42.686;23.352;2023-08-24T02:17:09;21.63;;;13.40;;
41233;SDS011;26968;42.686;23.352;2023-08-24T02:19:35;19.50;;;13.60;;
41233;SDS011;26968;42.686;23.352;2023-08-24T02:22:00;21.35;;;13.98;;
41233;SDS011;26968;42.686;23.352;2023-08-24T02:24:26;23.50;;;14.38;;
41233;SDS011;26968;42.686;23.352;2023-08-24T02:26:51;22.50;;;14.48;;
41233;SDS011;26968;42.686;23.352;2023-08-24T02:29:16;24.98;;;13.75;;
41233;SDS011;26968;42.686;23.352;2023-08-24T02:31:42;21.80;;;13.43;;
41233;SDS011;26968;42.686;23.352;2023-08-24T02:34:07;22.60;;;14.32;;
41233;SDS011;26968;42.686;23.352;2023-08-24T02:36:33;19.33;;;14.18;;
41233;SDS011;26968;42.686;23.352;2023-08-24T02:38:59;18.35;;;13.27;;
41233;SDS011;26968;42.686;23.352;2023-08-24T02:41:25;19.75;;;13.55;;
41233;SDS011;26968;42.686;23.352;2023-08-24T02:43:51;22.70;;;14.05;;
41233;SDS011;26968;42.686;23.352;2023-08-24T02:46:16;18.48;;;14.23;;
41233;SDS011;26968;42.686;23.352;2023-08-24T02:48:43;19.27;;;14.48;;
41233;SDS011;26968;42.686;23.352;2023-08-24T02:51:09;19.20;;;13.30;;
41233;SDS011;26968;42.686;23.352;2023-08-24T02:53:35;19.27;;;12.63;;
41233;SDS011;26968;42.686;23.352;2023-08-24T02:56:01;19.77;;;14.30;;
41233;SDS011;26968;42.686;23.352;2023-08-24T02:58:27;19.30;;;13.73;;
41233;SDS011;26968;42.686;23.352;2023-08-24T03:00:52;18.25;;;13.50;;
41233;SDS011;26968;42.686;23.352;2023-08-24T03:03:18;16.10;;;12.93;;
41233;SDS011;26968;42.686;23.352;2023-08-24T03:05:59;22.98;;;13.18;;
41233;SDS011;26968;42.686;23.352;2023-08-24T03:08:30;20.95;;;12.95;;
41233;SDS011;26968;42.686;23.352;2023-08-24T03:10:56;23.70;;;13.35;;
41233;SDS011;26968;42.686;23.352;2023-08-24T03:13:22;21.20;;;13.70;;
41233;SDS011;26968;42.686;23.352;2023-08-24T03:15:47;19.98;;;14.13;;
41233;SDS011;26968;42.686;23.352;2023-08-24T03:18:13;24.52;;;14.30;;
41233;SDS011;26968;42.686;23.352;2023-08-24T03:20:40;19.60;;;13.05;;
41233;SDS011;26968;42.686;23.352;2023-08-24T03:23:06;18.60;;;13.38;;
41233;SDS011;26968;42.686;23.352;2023-08-24T03:25:35;17.60;;;12.93;;
41233;SDS011;26968;42.686;23.352;2023-08-24T03:28:02;32.03;;;13.77;;
41233;SDS011;26968;42.686;23.352;2023-08-24T03:30:27;20.90;;;13.45;;
41233;SDS011;26968;42.686;23.352;2023-08-24T03:32:53;28.65;;;14.95;;
41233;SDS011;26968;42.686;23.352;2023-08-24T03:35:19;24.33;;;15.27;;
41233;SDS011;26968;42.686;23.352;2023-08-24T03:37:44;25.27;;;16.60;;
41233;SDS011;26968;42.686;23.352;2023-08-24T03:40:10;26.08;;;15.75;;
41233;SDS011;26968;42.686;23.352;2023-08-24T03:42:36;24.52;;;17.08;;
41233;SDS011;26968;42.686;23.352;2023-08-24T03:45:02;26.50;;;16.92;;
41233;SDS011;26968;42.686;23.352;2023-08-24T03:47:28;26.52;;;16.42;;
41233;SDS011;26968;42.686;23.352;2023-08-24T03:49:53;37.00;;;18.67;;
41233;SDS011;26968;42.686;23.352;2023-08-24T03:52:20;23.70;;;17.52;;
41233;SDS011;26968;42.686;23.352;2023-08-24T03:54:45;29.20;;;18.50;;
41233;SDS011;26968;42.686;23.352;2023-08-24T03:57:11;29.58;;;18.35;;
41233;SDS011;26968;42.686;23.352;2023-08-24T03:59:36;30.52;;;17.42;;
41233;SDS011;26968;42.686;23.352;2023-08-24T04:02:02;31.30;;;17.55;;
41233;SDS011;26968;42.686;23.352;2023-08-24T04:04:28;30.48;;;16.98;;
41233;SDS011;26968;42.686;23.352;2023-08-24T04:06:55;25.27;;;17.30;;
41233;SDS011;26968;42.686;23.352;2023-08-24T04:09:21;27.83;;;17.52;;
41233;SDS011;26968;42.686;23.352;2023-08-24T04:11:46;24.92;;;16.23;;
41233;SDS011;26968;42.686;23.352;2023-08-24T04:14:11;30.73;;;16.73;;
41233;SDS011;26968;42.686;23.352;2023-08-24T04:16:38;26.33;;;16.45;;
41233;SDS011;26968;42.686;23.352;2023-08-24T04:19:04;24.02;;;16.67;;
41233;SDS011;26968;42.686;23.352;2023-08-24T04:21:29;26.77;;;16.60;;
41233;SDS011;26968;42.686;23.352;2023-08-24T04:23:55;24.20;;;16.55;;
41233;SDS011;26968;42.686;23.352;2023-08-24T04:26:20;24.88;;;16.02;;
41233;SDS011;26968;42.686;23.352;2023-08-24T04:28:46;27.52;;;16.55;;
41233;SDS011;26968;42.686;23.352;2023-08-24T04:31:11;28.00;;;17.50;;
41233;SDS011;26968;42.686;23.352;2023-08-24T04:33:36;23.23;;;15.50;;
41233;SDS011;26968;42.686;23.352;2023-08-24T04:36:02;26.48;;;17.67;;
41233;SDS011;26968;42.686;23.352;2023-08-24T04:38:28;27.98;;;17.15;;
41233;SDS011;26968;42.686;23.352;2023-08-24T04:40:55;32.08;;;17.85;;
41233;SDS011;26968;42.686;23.352;2023-08-24T04:43:21;35.30;;;16.92;;
41233;SDS011;26968;42.686;23.352;2023-08-24T04:45:49;23.73;;;16.83;;
41233;SDS011;26968;42.686;23.352;2023-08-24T04:48:19;29.50;;;16.92;;
41233;SDS011;26968;42.686;23.352;2023-08-24T04:50:45;31.23;;;16.58;;
41233;SDS011;26968;42.686;23.352;2023-08-24T04:53:15;27.65;;;16.30;;
41233;SDS011;26968;42.686;23.352;2023-08-24T04:55:42;30.52;;;16.85;;
41233;SDS011;26968;42.686;23.352;2023-08-24T04:58:08;28.25;;;16.48;;
41233;SDS011;26968;42.686;23.352;2023-08-24T05:00:34;30.45;;;17.50;;
41233;SDS011;26968;42.686;23.352;2023-08-24T05:03:01;25.90;;;17.35;;
41233;SDS011;26968;42.686;23.352;2023-08-24T05:05:34;34.35;;;16.88;;
41233;SDS011;26968;42.686;23.352;2023-08-24T05:08:01;27.10;;;17.25;;
41233;SDS011;26968;42.686;23.352;2023-08-24T05:10:31;31.10;;;16.38;;
41233;SDS011;26968;42.686;23.352;2023-08-24T05:12:58;31.15;;;18.63;;
41233;SDS011;26968;42.686;23.352;2023-08-24T05:15:24;32.50;;;17.92;;
41233;SDS011;26968;42.686;23.352;2023-08-24T05:17:49;33.05;;;17.23;;
41233;SDS011;26968;42.686;23.352;2023-08-24T05:20:17;21.88;;;17.13;;
41233;SDS011;26968;42.686;23.352;2023-08-24T05:22:43;24.00;;;17.92;;
41233;SDS011;26968;42.686;23.352;2023-08-24T05:25:09;26.83;;;18.00;;
41233;SDS011;26968;42.686;23.352;2023-08-24T05:27:34;24.90;;;18.63;;
41233;SDS011;26968;42.686;23.352;2023-08-24T05:29:59;36.35;;;19.85;;
41233;SDS011;26968;42.686;23.352;2023-08-24T05:32:25;40.63;;;21.45;;
41233;SDS011;26968;42.686;23.352;2023-08-24T05:34:50;31.52;;;19.27;;
41233;SDS011;26968;42.686;23.352;2023-08-24T05:37:16;33.38;;;19.48;;
41233;SDS011;26968;42.686;23.352;2023-08-24T05:39:41;34.58;;;20.13;;
41233;SDS011;26968;42.686;23.352;2023-08-24T05:42:07;32.78;;;19.77;;
41233;SDS011;26968;42.686;23.352;2023-08-24T05:44:33;27.48;;;17.55;;
41233;SDS011;26968;42.686;23.352;2023-08-24T05:46:59;27.73;;;18.33;;
41233;SDS011;26968;42.686;23.352;2023-08-24T05:49:24;21.88;;;17.02;;
41233;SDS011;26968;42.686;23.352;2023-08-24T05:51:50;38.33;;;19.05;;
41233;SDS011;26968;42.686;23.352;2023-08-24T05:54:16;28.40;;;19.00;;
41233;SDS011;26968;42.686;23.352;2023-08-24T05:56:45;45.50;;;17.83;;
41233;SDS011;26968;42.686;23.352;2023-08-24T05:59:11;22.77;;;17.17;;
41233;SDS011;26968;42.686;23.352;2023-08-24T06:01:37;30.00;;;18.95;;
41233;SDS011;26968;42.686;23.352;2023-08-24T06:04:12;33.45;;;19.60;;
41233;SDS011;26968;42.686;23.352;2023-08-24T06:06:38;31.27;;;18.60;;
41233;SDS011;26968;42.686;23.352;2023-08-24T06:09:03;31.27;;;19.58;;
41233;SDS011;26968;42.686;23.352;2023-08-24T06:11:32;36.65;;;20.15;;
41233;SDS011;26968;42.686;23.352;2023-08-24T06:13:57;32.10;;;20.70;;
41233;SDS011;26968;42.686;23.352;2023-08-24T06:16:23;33.20;;;19.38;;
41233;SDS011;26968;42.686;23.352;2023-08-24T06:18:48;26.38;;;19.88;;
41233;SDS011;26968;42.686;23.352;2023-08-24T06:21:15;33.95;;;19.63;;
41233;SDS011;26968;42.686;23.352;2023-08-24T06:23:40;27.50;;;20.15;;
41233;SDS011;26968;42.686;23.352;2023-08-24T06:26:06;39.33;;;20.70;;
41233;SDS011;26968;42.686;23.352;2023-08-24T06:28:32;26.50;;;19.50;;
41233;SDS011;26968;42.686;23.352;2023-08-24T06:30:57;34.08;;;19.67;;
41233;SDS011;26968;42.686;23.352;2023-08-24T06:33:28;30.85;;;19.65;;
41233;SDS011;26968;42.686;23.352;2023-08-24T06:35:57;32.33;;;19.40;;
41233;SDS011;26968;42.686;23.352;2023-08-24T06:38:22;30.27;;;19.48;;
41233;SDS011;26968;42.686;23.352;2023-08-24T06:40:48;28.60;;;19.13;;
41233;SDS011;26968;42.686;23.352;2023-08-24T06:43:13;34.42;;;21.35;;
41233;SDS011;26968;42.686;23.352;2023-08-24T06:45:43;32.95;;;20.00;;
41233;SDS011;26968;42.686;23.352;2023-08-24T06:48:09;29.73;;;20.27;;
41233;SDS011;26968;42.686;23.352;2023-08-24T06:50:34;30.35;;;20.42;;
41233;SDS011;26968;42.686;23.352;2023-08-24T06:53:02;31.20;;;19.75;;
41233;SDS011;26968;42.686;23.352;2023-08-24T06:55:28;36.72;;;20.85;;
41233;SDS011;26968;42.686;23.352;2023-08-24T06:57:54;33.47;;;19.77;;
41233;SDS011;26968;42.686;23.352;2023-08-24T07:00:20;41.10;;;21.58;;
41233;SDS011;26968;42.686;23.352;2023-08-24T07:02:49;43.38;;;21.77;;
41233;SDS011;26968;42.686;23.352;2023-08-24T07:05:15;30.38;;;19.02;;
41233;SDS011;26968;42.686;23.352;2023-08-24T07:07:47;35.20;;;20.90;;
41233;SDS011;26968;42.686;23.352;2023-08-24T07:10:15;35.20;;;18.98;;
41233;SDS011;26968;42.686;23.352;2023-08-24T07:12:40;29.45;;;18.10;;
41233;SDS011;26968;42.686;23.352;2023-08-24T07:15:06;27.10;;;17.45;;
41233;SDS011;26968;42.686;23.352;2023-08-24T07:17:32;29.23;;;16.48;;
41233;SDS011;26968;42.686;23.352;2023-08-24T07:19:58;28.35;;;18.10;;
41233;SDS011;26968;42.686;23.352;2023-08-24T07:22:23;33.20;;;19.17;;
41233;SDS011;26968;42.686;23.352;2023-08-24T07:24:51;29.33;;;18.30;;
41233;SDS011;26968;42.686;23.352;2023-08-24T07:27:17;28.55;;;19.13;;
41233;SDS011;26968;42.686;23.352;2023-08-24T07:29:43;27.55;;;18.83;;
41233;SDS011;26968;42.686;23.352;2023-08-24T07:32:09;23.65;;;17.40;;
41233;SDS011;26968;42.686;23.352;2023-08-24T07:34:34;37.42;;;20.08;;
41233;SDS011;26968;42.686;23.352;2023-08-24T07:37:00;34.92;;;19.95;;
41233;SDS011;26968;42.686;23.352;2023-08-24T07:39:25;39.88;;;18.73;;
41233;SDS011;26968;42.686;23.352;2023-08-24T07:41:51;33.55;;;19.35;;
41233;SDS011;26968;42.686;23.352;2023-08-24T07:44:16;35.45;;;18.85;;
41233;SDS011;26968;42.686;23.352;2023-08-24T07:46:42;37.20;;;19.70;;
41233;SDS011;26968;42.686;23.352;2023-08-24T07:49:07;28.52;;;19.05;;
41233;SDS011;26968;42.686;23.352;2023-08-24T07:51:33;30.40;;;20.15;;
41233;SDS011;26968;42.686;23.352;2023-08-24T07:53:59;26.05;;;17.77;;
41233;SDS011;26968;42.686;23.352;2023-08-24T07:56:25;29.42;;;20.83;;
41233;SDS011;26968;42.686;23.352;2023-08-24T07:58:51;31.70;;;20.05;;
41233;SDS011;26968;42.686;23.352;2023-08-24T08:01:16;32.85;;;20.20;;
41233;SDS011;26968;42.686;23.352;2023-08-24T08:03:41;35.35;;;19.73;;
41233;SDS011;26968;42.686;23.352;2023-08-24T08:06:07;31.50;;;19.52;;
41233;SDS011;26968;42.686;23.352;2023-08-24T08:08:32;26.45;;;18.73;;
41233;SDS011;26968;42.686;23.352;2023-08-24T08:10:59;32.50;;;17.65;;
41233;SDS011;26968;42.686;23.352;2023-08-24T08:13:26;22.73;;;16.25;;
41233;SDS011;26968;42.686;23.352;2023-08-24T08:16:02;29.38;;;18.05;;
41233;SDS011;26968;42.686;23.352;2023-08-24T08:18:34;38.83;;;17.98;;
41233;SDS011;26968;42.686;23.352;2023-08-24T08:21:00;31.38;;;16.80;;
41233;SDS011;26968;42.686;23.352;2023-08-24T08:23:27;27.17;;;15.38;;
41233;SDS011;26968;42.686;23.352;2023-08-24T08:25:52;30.75;;;17.48;;
41233;SDS011;26968;42.686;23.352;2023-08-24T08:28:18;22.00;;;15.07;;
41233;SDS011;26968;42.686;23.352;2023-08-24T08:30:44;27.92;;;15.07;;
41233;SDS011;26968;42.686;23.352;2023-08-24T08:33:10;28.45;;;16.27;;
41233;SDS011;26968;42.686;23.352;2023-08-24T08:35:35;25.95;;;16.67;;
41233;SDS011;26968;42.686;23.352;2023-08-24T08:38:02;27.10;;;17.63;;
41233;SDS011;26968;42.686;23.352;2023-08-24T08:40:29;22.35;;;16.98;;
41233;SDS011;26968;42.686;23.352;2023-08-24T08:42:57;23.85;;;15.98;;
41233;SDS011;26968;42.686;23.352;2023-08-24T08:45:26;25.45;;;15.30;;
41233;SDS011;26968;42.686;23.352;2023-08-24T08:47:53;24.42;;;15.50;;
41233;SDS011;26968;42.686;23.352;2023-08-24T08:52:48;29.30;;;15.85;;
41233;SDS011;26968;42.686;23.352;2023-08-24T08:55:14;26.65;;;14.73;;
41233;SDS011;26968;42.686;23.352;2023-08-24T08:57:40;32.65;;;14.30;;
41233;SDS011;26968;42.686;23.352;2023-08-24T09:00:08;26.80;;;15.25;;
41233;SDS011;26968;42.686;23.352;2023-08-24T09:02:38;22.48;;;15.65;;
41233;SDS011;26968;42.686;23.352;2023-08-24T09:05:09;34.13;;;16.92;;
41233;SDS011;26968;42.686;23.352;2023-08-24T09:07:35;25.83;;;15.63;;
41233;SDS011;26968;42.686;23.352;2023-08-24T09:10:01;24.90;;;16.60;;
41233;SDS011;26968;42.686;23.352;2023-08-24T09:12:30;21.45;;;13.98;;
41233;SDS011;26968;42.686;23.352;2023-08-24T09:14:58;28.38;;;15.13;;
41233;SDS011;26968;42.686;23.352;2023-08-24T09:17:23;31.17;;;14.73;;
41233;SDS011;26968;42.686;23.352;2023-08-24T09:19:49;23.85;;;15.45;;
41233;SDS011;26968;42.686;23.352;2023-08-24T09:22:17;25.25;;;15.07;;
41233;SDS011;26968;42.686;23.352;2023-08-24T09:24:42;22.60;;;14.35;;
41233;SDS011;26968;42.686;23.352;2023-08-24T09:27:18;22.48;;;14.77;;
41233;SDS011;26968;42.686;23.352;2023-08-24T09:29:48;19.25;;;14.45;;
41233;SDS011;26968;42.686;23.352;2023-08-24T09:32:15;21.30;;;14.60;;
41233;SDS011;26968;42.686;23.352;2023-08-24T09:35:08;25.23;;;15.38;;
41233;SDS011;26968;42.686;23.352;2023-08-24T09:37:34;26.95;;;14.55;;
41233;SDS011;26968;42.686;23.352;2023-08-24T09:40:05;29.17;;;15.35;;
41233;SDS011;26968;42.686;23.352;2023-08-24T09:42:40;22.83;;;14.73;;
41233;SDS011;26968;42.686;23.352;2023-08-24T09:45:07;19.77;;;13.90;;
41233;SDS011;26968;42.686;23.352;2023-08-24T09:47:36;21.83;;;14.68;;
41233;SDS011;26968;42.686;23.352;2023-08-24T09:50:02;23.08;;;16.02;;
41233;SDS011;26968;42.686;23.352;2023-08-24T09:52:30;19.45;;;15.18;;
41233;SDS011;26968;42.686;23.352;2023-08-24T09:54:59;24.73;;;14.13;;
41233;SDS011;26968;42.686;23.352;2023-08-24T09:57:30;24.08;;;14.88;;
41233;SDS011;26968;42.686;23.352;2023-08-24T10:00:01;20.30;;;14.18;;
41233;SDS011;26968;42.686;23.352;2023-08-24T10:02:31;16.58;;;11.77;;
41233;SDS011;26968;42.686;23.352;2023-08-24T10:05:01;17.10;;;11.50;;
41233;SDS011;26968;42.686;23.352;2023-08-24T10:07:28;15.88;;;11.32;;
41233;SDS011;26968;42.686;23.352;2023-08-24T10:12:36;19.75;;;11.23;;
41233;SDS011;26968;42.686;23.352;2023-08-24T10:15:06;14.32;;;11.07;;
41233;SDS011;26968;42.686;23.352;2023-08-24T10:17:34;13.65;;;10.23;;
41233;SDS011;26968;42.686;23.352;2023-08-24T10:20:01;13.98;;;9.60;;
41233;SDS011;26968;42.686;23.352;2023-08-24T10:22:30;14.40;;;10.27;;
41233;SDS011;26968;42.686;23.352;2023-08-24T10:24:59;13.35;;;10.13;;
41233;SDS011;26968;42.686;23.352;2023-08-24T10:27:25;14.25;;;9.80;;
41233;SDS011;26968;42.686;23.352;2023-08-24T10:29:52;11.43;;;9.43;;
41233;SDS011;26968;42.686;23.352;2023-08-24T10:32:19;11.88;;;9.15;;
41233;SDS011;26968;42.686;23.352;2023-08-24T10:34:46;14.20;;;8.82;;
41233;SDS011;26968;42.686;23.352;2023-08-24T10:37:13;11.95;;;9.40;;
41233;SDS011;26968;42.686;23.352;2023-08-24T10:39:45;17.17;;;10.02;;
41233;SDS011;26968;42.686;23.352;2023-08-24T10:42:12;17.77;;;10.43;;
41233;SDS011;26968;42.686;23.352;2023-08-24T10:44:39;14.25;;;10.43;;
41233;SDS011;26968;42.686;23.352;2023-08-24T10:47:12;13.40;;;9.90;;
41233;SDS011;26968;42.686;23.352;2023-08-24T10:52:24;20.33;;;11.82;;
41233;SDS011;26968;42.686;23.352;2023-08-24T10:54:50;16.67;;;11.02;;
41233;SDS011;26968;42.686;23.352;2023-08-24T10:57:17;20.33;;;11.32;;
41233;SDS011;26968;42.686;23.352;2023-08-24T10:59:45;21.17;;;11.98;;
41233;SDS011;26968;42.686;23.352;2023-08-24T11:02:17;26.50;;;12.80;;
41233;SDS011;26968;42.686;23.352;2023-08-24T11:07:29;17.75;;;11.45;;
41233;SDS011;26968;42.686;23.352;2023-08-24T11:09:54;20.27;;;11.57;;
41233;SDS011;26968;42.686;23.352;2023-08-24T11:12:20;19.83;;;11.63;;
41233;SDS011;26968;42.686;23.352;2023-08-24T11:14:49;22.33;;;12.20;;
41233;SDS011;26968;42.686;23.352;2023-08-24T11:17:24;15.13;;;11.60;;
41233;SDS011;26968;42.686;23.352;2023-08-24T11:19:54;16.48;;;11.80;;
41233;SDS011;26968;42.686;23.352;2023-08-24T11:22:20;19.67;;;11.68;;
41233;SDS011;26968;42.686;23.352;2023-08-24T11:24:48;16.50;;;12.23;;
41233;SDS011;26968;42.686;23.352;2023-08-24T11:27:13;23.55;;;11.95;;
41233;SDS011;26968;42.686;23.352;2023-08-24T11:29:41;17.50;;;11.30;;
41233;SDS011;26968;42.686;23.352;2023-08-24T11:32:06;12.88;;;11.27;;
41233;SDS011;26968;42.686;23.352;2023-08-24T11:34:32;15.85;;;10.63;;
41233;SDS011;26968;42.686;23.352;2023-08-24T11:36:59;28.52;;;12.07;;
41233;SDS011;26968;42.686;23.352;2023-08-24T11:39:25;19.02;;;11.75;;
41233;SDS011;26968;42.686;23.352;2023-08-24T11:44:29;16.85;;;11.57;;
41233;SDS011;26968;42.686;23.352;2023-08-24T11:47:09;21.90;;;12.70;;
41233;SDS011;26968;42.686;23.352;2023-08-24T11:49:35;20.50;;;11.90;;
41233;SDS011;26968;42.686;23.352;2023-08-24T11:52:00;18.88;;;13.10;;
41233;SDS011;26968;42.686;23.352;2023-08-24T11:54:26;13.05;;;11.55;;
41233;SDS011;26968;42.686;23.352;2023-08-24T11:56:52;24.98;;;12.13;;
41233;SDS011;26968;42.686;23.352;2023-08-24T11:59:17;25.95;;;12.27;;
41233;SDS011;26968;42.686;23.352;2023-08-24T12:01:44;26.95;;;12.20;;
41233;SDS011;26968;42.686;23.352;2023-08-24T12:04:12;20.75;;;12.18;;
41233;SDS011;26968;42.686;23.352;2023-08-24T12:06:37;18.05;;;11.95;;
41233;SDS011;26968;42.686;23.352;2023-08-24T12:09:06;19.90;;;11.90;;
41233;SDS011;26968;42.686;23.352;2023-08-24T12:11:35;17.55;;;10.93;;
41233;SDS011;26968;42.686;23.352;2023-08-24T12:14:01;18.48;;;10.98;;
41233;SDS011;26968;42.686;23.352;2023-08-24T12:16:27;16.52;;;11.00;;
41233;SDS011;26968;42.686;23.352;2023-08-24T12:18:56;18.52;;;11.35;;
41233;SDS011;26968;42.686;23.352;2023-08-24T12:21:29;15.20;;;10.80;;
41233;SDS011;26968;42.686;23.352;2023-08-24T12:23:56;13.20;;;10.95;;
41233;SDS011;26968;42.686;23.352;2023-08-24T12:26:29;21.35;;;11.40;;
41233;SDS011;26968;42.686;23.352;2023-08-24T12:29:01;21.63;;;11.60;;
41233;SDS011;26968;42.686;23.352;2023-08-24T12:31:33;16.65;;;11.25;;
41233;SDS011;26968;42.686;23.352;2023-08-24T12:34:08;14.50;;;10.73;;
41233;SDS011;26968;42.686;23.352;2023-08-24T12:36:35;21.42;;;11.13;;
41233;SDS011;26968;42.686;23.352;2023-08-24T12:39:02;16.70;;;11.20;;
41233;SDS011;26968;42.686;23.352;2023-08-24T12:43:58;18.02;;;10.98;;
41233;SDS011;26968;42.686;23.352;2023-08-24T12:46:24;16.90;;;10.52;;
41233;SDS011;26968;42.686;23.352;2023-08-24T12:48:50;16.23;;;11.30;;
41233;SDS011;26968;42.686;23.352;2023-08-24T12:51:16;17.38;;;11.23;;
41233;SDS011;26968;42.686;23.352;2023-08-24T12:53:42;15.95;;;11.43;;
41233;SDS011;26968;42.686;23.352;2023-08-24T12:56:08;15.57;;;10.73;;
41233;SDS011;26968;42.686;23.352;2023-08-24T12:58:33;21.25;;;11.77;;
41233;SDS011;26968;42.686;23.352;2023-08-24T13:00:59;15.65;;;11.95;;
41233;SDS011;26968;42.686;23.352;2023-08-24T13:03:25;26.25;;;12.98;;
41233;SDS011;26968;42.686;23.352;2023-08-24T13:05:50;30.23;;;13.55;;
41233;SDS011;26968;42.686;23.352;2023-08-24T13:08:16;23.60;;;14.25;;
41233;SDS011;26968;42.686;23.352;2023-08-24T13:10:41;21.70;;;12.52;;
41233;SDS011;26968;42.686;23.352;2023-08-24T13:13:07;25.15;;;12.73;;
41233;SDS011;26968;42.686;23.352;2023-08-24T13:15:33;26.65;;;13.70;;
41233;SDS011;26968;42.686;23.352;2023-08-24T13:17:58;24.00;;;13.45;;
41233;SDS011;26968;42.686;23.352;2023-08-24T13:20:24;23.58;;;12.40;;
41233;SDS011;26968;42.686;23.352;2023-08-24T13:22:50;22.02;;;12.00;;
41233;SDS011;26968;42.686;23.352;2023-08-24T13:25:17;19.60;;;11.52;;
41233;SDS011;26968;42.686;23.352;2023-08-24T13:27:43;19.65;;;11.77;;
41233;SDS011;26968;42.686;23.352;2023-08-24T13:30:09;19.52;;;11.82;;
41233;SDS011;26968;42.686;23.352;2023-08-24T13:32:34;22.55;;;11.73;;
41233;SDS011;26968;42.686;23.352;2023-08-24T13:35:00;22.88;;;11.02;;
41233;SDS011;26968;42.686;23.352;2023-08-24T13:37:26;13.20;;;10.30;;
41233;SDS011;26968;42.686;23.352;2023-08-24T13:39:52;19.13;;;10.93;;
41233;SDS011;26968;42.686;23.352;2023-08-24T13:42:17;24.05;;;11.18;;
41233;SDS011;26968;42.686;23.352;2023-08-24T13:44:43;20.75;;;11.35;;
41233;SDS011;26968;42.686;23.352;2023-08-24T13:47:09;16.60;;;11.35;;
41233;SDS011;26968;42.686;23.352;2023-08-24T13:49:35;18.50;;;11.10;;
41233;SDS011;26968;42.686;23.352;2023-08-24T13:52:00;19.52;;;12.07;;
41233;SDS011;26968;42.686;23.352;2023-08-24T13:54:26;16.77;;;11.55;;
41233;SDS011;26968;42.686;23.352;2023-08-24T13:56:51;20.88;;;12.30;;
41233;SDS011;26968;42.686;23.352;2023-08-24T13:59:19;24.13;;;11.85;;
41233;SDS011;26968;42.686;23.352;2023-08-24T14:01:45;21.38;;;12.05;;
41233;SDS011;26968;42.686;23.352;2023-08-24T14:04:10;14.23;;;11.45;;
41233;SDS011;26968;42.686;23.352;2023-08-24T14:06:36;17.23;;;11.35;;
41233;SDS011;26968;42.686;23.352;2023-08-24T14:09:04;24.23;;;11.77;;
41233;SDS011;26968;42.686;23.352;2023-08-24T14:11:30;17.25;;;11.48;;
41233;SDS011;26968;42.686;23.352;2023-08-24T14:13:56;18.27;;;11.55;;
41233;SDS011;26968;42.686;23.352;2023-08-24T14:16:22;19.15;;;11.60;;
41233;SDS011;26968;42.686;23.352;2023-08-24T14:18:48;17.83;;;11.68;;
41233;SDS011;26968;42.686;23.352;2023-08-24T14:21:15;18.80;;;11.07;;
41233;SDS011;26968;42.686;23.352;2023-08-24T14:23:40;18.98;;;11.57;;
41233;SDS011;26968;42.686;23.352;2023-08-24T14:26:06;18.00;;;11.73;;
41233;SDS011;26968;42.686;23.352;2023-08-24T14:31:29;18.88;;;11.18;;
41233;SDS011;26968;42.686;23.352;2023-08-24T14:33:55;18.80;;;11.73;;